sensor_id;sensor_type;location;lat;lon;timestamp;temperature;humidity
2929;DHT22;1474;51.460;7.150;2023-06-14T00:01:59;18.60;49.60
2929;DHT22;1474;51.460;7.150;2023-06-14T00:04:24;18.60;49.80
2929;DHT22;1474;51.460;7.150;2023-06-14T00:06:50;18.60;50.20
2929;DHT22;1474;51.460;7.150;2023-06-14T00:09:16;18.60;50.30
2929;DHT22;1474;51.460;7.150;2023-06-14T00:11:43;18.60;50.40
2929;DHT22;1474;51.460;7.150;2023-06-14T00:14:09;18.60;50.40
2929;DHT22;1474;51.460;7.150;2023-06-14T00:16:35;18.50;50.60
2929;DHT22;1474;51.460;7.150;2023-06-14T00:19:02;18.50;50.30
2929;DHT22;1474;51.460;7.150;2023-06-14T00:21:31;18.50;50.20
2929;DHT22;1474;51.460;7.150;2023-06-14T00:23:58;18.40;50.20
2929;DHT22;1474;51.460;7.150;2023-06-14T00:26:25;18.40;50.90
2929;DHT22;1474;51.460;7.150;2023-06-14T00:28:52;18.40;50.50
2929;DHT22;1474;51.460;7.150;2023-06-14T00:31:18;18.30;50.20
2929;DHT22;1474;51.460;7.150;2023-06-14T00:33:44;18.30;50.80
2929;DHT22;1474;51.460;7.150;2023-06-14T00:36:10;18.20;50.30
2929;DHT22;1474;51.460;7.150;2023-06-14T00:38:36;18.20;50.30
2929;DHT22;1474;51.460;7.150;2023-06-14T00:41:02;18.20;50.40
2929;DHT22;1474;51.460;7.150;2023-06-14T00:43:28;18.10;50.50
2929;DHT22;1474;51.460;7.150;2023-06-14T00:45:53;18.10;50.60
2929;DHT22;1474;51.460;7.150;2023-06-14T00:48:19;18.10;50.90
2929;DHT22;1474;51.460;7.150;2023-06-14T00:50:45;18.10;51.20
2929;DHT22;1474;51.460;7.150;2023-06-14T00:53:17;18.00;50.60
2929;DHT22;1474;51.460;7.150;2023-06-14T00:55:43;18.00;50.60
2929;DHT22;1474;51.460;7.150;2023-06-14T00:58:10;18.00;51.70
2929;DHT22;1474;51.460;7.150;2023-06-14T01:00:36;18.00;50.50
2929;DHT22;1474;51.460;7.150;2023-06-14T01:03:02;18.00;50.70
2929;DHT22;1474;51.460;7.150;2023-06-14T01:05:29;18.00;50.60
2929;DHT22;1474;51.460;7.150;2023-06-14T01:11:12;17.90;50.60
2929;DHT22;1474;51.460;7.150;2023-06-14T01:13:45;17.90;50.40
2929;DHT22;1474;51.460;7.150;2023-06-14T01:16:12;17.90;50.80
2929;DHT22;1474;51.460;7.150;2023-06-14T01:18:38;17.80;51.00
2929;DHT22;1474;51.460;7.150;2023-06-14T01:21:04;17.80;50.50
2929;DHT22;1474;51.460;7.150;2023-06-14T01:23:31;17.80;50.50
2929;DHT22;1474;51.460;7.150;2023-06-14T01:25:59;17.80;50.40
2929;DHT22;1474;51.460;7.150;2023-06-14T01:28:27;17.80;50.50
2929;DHT22;1474;51.460;7.150;2023-06-14T01:31:00;17.80;50.40
2929;DHT22;1474;51.460;7.150;2023-06-14T01:33:30;17.80;50.50
2929;DHT22;1474;51.460;7.150;2023-06-14T01:35:58;17.80;50.50
2929;DHT22;1474;51.460;7.150;2023-06-14T01:38:26;17.80;51.00
2929;DHT22;1474;51.460;7.150;2023-06-14T01:40:55;17.70;51.10
2929;DHT22;1474;51.460;7.150;2023-06-14T01:43:23;17.70;50.70
2929;DHT22;1474;51.460;7.150;2023-06-14T01:45:51;17.70;51.00
2929;DHT22;1474;51.460;7.150;2023-06-14T01:48:20;17.70;51.10
2929;DHT22;1474;51.460;7.150;2023-06-14T01:50:46;17.70;50.90
2929;DHT22;1474;51.460;7.150;2023-06-14T01:53:14;17.60;51.50
2929;DHT22;1474;51.460;7.150;2023-06-14T01:55:40;17.60;50.90
2929;DHT22;1474;51.460;7.150;2023-06-14T01:58:09;17.60;51.60
2929;DHT22;1474;51.460;7.150;2023-06-14T02:00:36;17.60;51.30
2929;DHT22;1474;51.460;7.150;2023-06-14T02:03:02;17.50;51.20
2929;DHT22;1474;51.460;7.150;2023-06-14T02:05:30;17.50;51.10
2929;DHT22;1474;51.460;7.150;2023-06-14T02:07:56;17.50;51.40
2929;DHT22;1474;51.460;7.150;2023-06-14T02:10:21;17.40;51.00
2929;DHT22;1474;51.460;7.150;2023-06-14T02:12:47;17.40;51.40
2929;DHT22;1474;51.460;7.150;2023-06-14T02:15:13;17.30;51.50
2929;DHT22;1474;51.460;7.150;2023-06-14T02:17:43;17.30;51.70
2929;DHT22;1474;51.460;7.150;2023-06-14T02:20:09;17.30;51.70
2929;DHT22;1474;51.460;7.150;2023-06-14T02:22:35;17.30;52.00
2929;DHT22;1474;51.460;7.150;2023-06-14T02:25:01;17.30;51.70
2929;DHT22;1474;51.460;7.150;2023-06-14T02:27:27;17.20;52.10
2929;DHT22;1474;51.460;7.150;2023-06-14T02:29:53;17.20;51.80
2929;DHT22;1474;51.460;7.150;2023-06-14T02:32:19;17.20;52.60
2929;DHT22;1474;51.460;7.150;2023-06-14T02:34:44;17.20;52.60
2929;DHT22;1474;51.460;7.150;2023-06-14T02:37:15;17.20;52.00
2929;DHT22;1474;51.460;7.150;2023-06-14T02:39:41;17.10;51.80
2929;DHT22;1474;51.460;7.150;2023-06-14T02:42:07;17.10;52.40
2929;DHT22;1474;51.460;7.150;2023-06-14T02:44:33;17.10;52.50
2929;DHT22;1474;51.460;7.150;2023-06-14T02:46:59;17.10;52.70
2929;DHT22;1474;51.460;7.150;2023-06-14T02:49:26;17.00;52.90
2929;DHT22;1474;51.460;7.150;2023-06-14T02:51:52;16.90;52.50
2929;DHT22;1474;51.460;7.150;2023-06-14T02:54:17;16.90;52.70
2929;DHT22;1474;51.460;7.150;2023-06-14T02:56:43;17.00;52.70
2929;DHT22;1474;51.460;7.150;2023-06-14T02:59:09;16.90;53.10
2929;DHT22;1474;51.460;7.150;2023-06-14T03:01:35;17.00;52.80
2929;DHT22;1474;51.460;7.150;2023-06-14T03:04:09;17.00;53.50
2929;DHT22;1474;51.460;7.150;2023-06-14T03:06:35;16.90;52.90
2929;DHT22;1474;51.460;7.150;2023-06-14T03:09:02;16.80;53.20
2929;DHT22;1474;51.460;7.150;2023-06-14T03:11:32;16.80;52.90
2929;DHT22;1474;51.460;7.150;2023-06-14T03:13:58;16.80;52.90
2929;DHT22;1474;51.460;7.150;2023-06-14T03:16:25;16.70;52.90
2929;DHT22;1474;51.460;7.150;2023-06-14T03:18:54;16.70;53.30
2929;DHT22;1474;51.460;7.150;2023-06-14T03:21:20;16.70;53.10
2929;DHT22;1474;51.460;7.150;2023-06-14T03:23:46;16.70;53.30
2929;DHT22;1474;51.460;7.150;2023-06-14T03:26:12;16.70;53.30
2929;DHT22;1474;51.460;7.150;2023-06-14T03:28:39;16.70;53.60
2929;DHT22;1474;51.460;7.150;2023-06-14T03:31:08;16.60;53.60
2929;DHT22;1474;51.460;7.150;2023-06-14T03:33:34;16.60;53.80
2929;DHT22;1474;51.460;7.150;2023-06-14T03:36:02;16.60;53.30
2929;DHT22;1474;51.460;7.150;2023-06-14T03:38:28;16.60;53.30
2929;DHT22;1474;51.460;7.150;2023-06-14T03:40:54;16.50;53.50
2929;DHT22;1474;51.460;7.150;2023-06-14T03:43:20;16.40;54.00
2929;DHT22;1474;51.460;7.150;2023-06-14T03:45:46;16.40;53.60
2929;DHT22;1474;51.460;7.150;2023-06-14T03:48:11;16.40;53.80
2929;DHT22;1474;51.460;7.150;2023-06-14T03:50:37;16.40;53.80
2929;DHT22;1474;51.460;7.150;2023-06-14T03:53:04;16.40;54.20
2929;DHT22;1474;51.460;7.150;2023-06-14T03:55:30;16.30;53.70
2929;DHT22;1474;51.460;7.150;2023-06-14T03:57:59;16.40;54.70
2929;DHT22;1474;51.460;7.150;2023-06-14T04:00:25;16.30;53.90
2929;DHT22;1474;51.460;7.150;2023-06-14T04:02:51;16.30;53.80
2929;DHT22;1474;51.460;7.150;2023-06-14T04:05:17;16.20;53.80
2929;DHT22;1474;51.460;7.150;2023-06-14T04:07:45;16.20;54.60
2929;DHT22;1474;51.460;7.150;2023-06-14T04:10:12;16.20;54.10
2929;DHT22;1474;51.460;7.150;2023-06-14T04:12:39;16.20;54.10
2929;DHT22;1474;51.460;7.150;2023-06-14T04:15:05;16.20;54.50
2929;DHT22;1474;51.460;7.150;2023-06-14T04:17:33;16.20;54.20
2929;DHT22;1474;51.460;7.150;2023-06-14T04:20:00;16.20;54.30
2929;DHT22;1474;51.460;7.150;2023-06-14T04:22:26;16.20;55.30
2929;DHT22;1474;51.460;7.150;2023-06-14T04:24:56;16.10;54.20
2929;DHT22;1474;51.460;7.150;2023-06-14T04:27:23;16.20;54.30
2929;DHT22;1474;51.460;7.150;2023-06-14T04:29:54;16.20;54.70
2929;DHT22;1474;51.460;7.150;2023-06-14T04:32:28;16.20;54.40
2929;DHT22;1474;51.460;7.150;2023-06-14T04:34:59;16.20;54.40
2929;DHT22;1474;51.460;7.150;2023-06-14T04:37:29;16.20;54.30
2929;DHT22;1474;51.460;7.150;2023-06-14T04:39:56;16.20;54.30
2929;DHT22;1474;51.460;7.150;2023-06-14T04:42:23;16.30;54.00
2929;DHT22;1474;51.460;7.150;2023-06-14T04:44:51;16.40;54.80
2929;DHT22;1474;51.460;7.150;2023-06-14T04:47:21;16.50;54.20
2929;DHT22;1474;51.460;7.150;2023-06-14T04:49:47;16.50;54.30
2929;DHT22;1474;51.460;7.150;2023-06-14T04:52:13;16.60;53.50
2929;DHT22;1474;51.460;7.150;2023-06-14T04:54:42;16.70;53.20
2929;DHT22;1474;51.460;7.150;2023-06-14T04:57:08;16.80;53.50
2929;DHT22;1474;51.460;7.150;2023-06-14T04:59:39;16.90;53.90
2929;DHT22;1474;51.460;7.150;2023-06-14T05:02:06;17.00;52.80
2929;DHT22;1474;51.460;7.150;2023-06-14T05:04:32;17.10;52.70
2929;DHT22;1474;51.460;7.150;2023-06-14T05:06:59;17.30;51.60
2929;DHT22;1474;51.460;7.150;2023-06-14T05:09:24;17.40;52.20
2929;DHT22;1474;51.460;7.150;2023-06-14T05:11:50;17.50;52.20
2929;DHT22;1474;51.460;7.150;2023-06-14T05:14:16;17.60;52.10
2929;DHT22;1474;51.460;7.150;2023-06-14T05:16:43;17.80;51.60
2929;DHT22;1474;51.460;7.150;2023-06-14T05:19:09;18.00;51.20
2929;DHT22;1474;51.460;7.150;2023-06-14T05:21:36;18.20;51.20
2929;DHT22;1474;51.460;7.150;2023-06-14T05:24:03;18.40;50.40
2929;DHT22;1474;51.460;7.150;2023-06-14T05:26:29;18.70;49.50
2929;DHT22;1474;51.460;7.150;2023-06-14T05:28:56;19.00;49.80
2929;DHT22;1474;51.460;7.150;2023-06-14T05:31:23;19.20;49.30
2929;DHT22;1474;51.460;7.150;2023-06-14T05:33:51;19.40;49.00
2929;DHT22;1474;51.460;7.150;2023-06-14T05:36:19;19.70;47.90
2929;DHT22;1474;51.460;7.150;2023-06-14T05:38:46;19.90;46.80
2929;DHT22;1474;51.460;7.150;2023-06-14T05:41:12;20.20;46.70
2929;DHT22;1474;51.460;7.150;2023-06-14T05:43:38;20.30;47.10
2929;DHT22;1474;51.460;7.150;2023-06-14T05:46:04;20.60;46.70
2929;DHT22;1474;51.460;7.150;2023-06-14T05:48:33;20.70;46.30
2929;DHT22;1474;51.460;7.150;2023-06-14T05:50:58;20.60;47.70
2929;DHT22;1474;51.460;7.150;2023-06-14T05:53:25;20.90;46.40
2929;DHT22;1474;51.460;7.150;2023-06-14T05:55:51;21.10;46.00
2929;DHT22;1474;51.460;7.150;2023-06-14T05:58:21;21.50;45.60
2929;DHT22;1474;51.460;7.150;2023-06-14T06:00:47;21.50;45.60
2929;DHT22;1474;51.460;7.150;2023-06-14T06:03:13;21.70;45.40
2929;DHT22;1474;51.460;7.150;2023-06-14T06:05:39;21.80;43.30
2929;DHT22;1474;51.460;7.150;2023-06-14T06:08:05;21.70;44.00
2929;DHT22;1474;51.460;7.150;2023-06-14T06:10:31;21.80;44.00
2929;DHT22;1474;51.460;7.150;2023-06-14T06:12:57;21.80;43.90
2929;DHT22;1474;51.460;7.150;2023-06-14T06:15:22;21.70;43.40
2929;DHT22;1474;51.460;7.150;2023-06-14T06:17:48;21.70;43.80
2929;DHT22;1474;51.460;7.150;2023-06-14T06:20:14;21.80;45.30
2929;DHT22;1474;51.460;7.150;2023-06-14T06:22:40;21.90;43.50
2929;DHT22;1474;51.460;7.150;2023-06-14T06:25:06;21.90;44.70
2929;DHT22;1474;51.460;7.150;2023-06-14T06:27:33;21.90;43.10
2929;DHT22;1474;51.460;7.150;2023-06-14T06:29:58;21.90;43.20
2929;DHT22;1474;51.460;7.150;2023-06-14T06:32:24;21.80;45.00
2929;DHT22;1474;51.460;7.150;2023-06-14T06:34:50;21.80;43.50
2929;DHT22;1474;51.460;7.150;2023-06-14T06:37:17;21.80;44.30
2929;DHT22;1474;51.460;7.150;2023-06-14T06:39:43;21.80;44.30
2929;DHT22;1474;51.460;7.150;2023-06-14T06:42:09;21.60;43.70
2929;DHT22;1474;51.460;7.150;2023-06-14T06:44:36;21.50;43.60
2929;DHT22;1474;51.460;7.150;2023-06-14T06:47:01;21.60;45.20
2929;DHT22;1474;51.460;7.150;2023-06-14T06:49:27;21.50;44.80
2929;DHT22;1474;51.460;7.150;2023-06-14T06:54:27;21.30;44.30
2929;DHT22;1474;51.460;7.150;2023-06-14T06:56:53;21.20;44.30
2929;DHT22;1474;51.460;7.150;2023-06-14T06:59:19;21.10;44.70
2929;DHT22;1474;51.460;7.150;2023-06-14T07:01:45;21.10;44.30
2929;DHT22;1474;51.460;7.150;2023-06-14T07:04:12;21.10;45.60
2929;DHT22;1474;51.460;7.150;2023-06-14T07:06:38;21.20;46.50
2929;DHT22;1474;51.460;7.150;2023-06-14T07:09:04;21.30;44.60
2929;DHT22;1474;51.460;7.150;2023-06-14T07:11:33;21.40;45.20
2929;DHT22;1474;51.460;7.150;2023-06-14T07:13:59;21.30;45.50
2929;DHT22;1474;51.460;7.150;2023-06-14T07:16:25;21.40;45.20
2929;DHT22;1474;51.460;7.150;2023-06-14T07:18:51;21.50;46.70
2929;DHT22;1474;51.460;7.150;2023-06-14T07:21:18;21.50;43.60
2929;DHT22;1474;51.460;7.150;2023-06-14T07:23:43;21.20;44.60
2929;DHT22;1474;51.460;7.150;2023-06-14T07:26:09;21.10;43.90
2929;DHT22;1474;51.460;7.150;2023-06-14T07:28:35;20.90;45.00
2929;DHT22;1474;51.460;7.150;2023-06-14T07:31:01;20.90;44.90
2929;DHT22;1474;51.460;7.150;2023-06-14T07:33:28;20.90;45.20
2929;DHT22;1474;51.460;7.150;2023-06-14T07:35:54;21.00;45.30
2929;DHT22;1474;51.460;7.150;2023-06-14T07:38:20;21.10;45.10
2929;DHT22;1474;51.460;7.150;2023-06-14T07:40:46;21.20;46.90
2929;DHT22;1474;51.460;7.150;2023-06-14T07:43:11;21.40;45.50
2929;DHT22;1474;51.460;7.150;2023-06-14T07:45:37;21.40;43.70
2929;DHT22;1474;51.460;7.150;2023-06-14T07:48:03;21.40;44.60
2929;DHT22;1474;51.460;7.150;2023-06-14T07:50:29;21.40;44.00
2929;DHT22;1474;51.460;7.150;2023-06-14T07:52:55;21.20;44.60
2929;DHT22;1474;51.460;7.150;2023-06-14T07:55:21;21.10;46.00
2929;DHT22;1474;51.460;7.150;2023-06-14T07:57:47;21.20;44.70
2929;DHT22;1474;51.460;7.150;2023-06-14T08:00:13;21.30;46.50
2929;DHT22;1474;51.460;7.150;2023-06-14T08:02:44;21.50;45.20
2929;DHT22;1474;51.460;7.150;2023-06-14T08:05:11;21.50;44.80
2929;DHT22;1474;51.460;7.150;2023-06-14T08:07:38;21.40;44.50
2929;DHT22;1474;51.460;7.150;2023-06-14T08:10:06;21.50;45.30
2929;DHT22;1474;51.460;7.150;2023-06-14T08:12:32;21.40;44.50
2929;DHT22;1474;51.460;7.150;2023-06-14T08:15:00;21.40;44.80
2929;DHT22;1474;51.460;7.150;2023-06-14T08:17:26;21.40;44.90
2929;DHT22;1474;51.460;7.150;2023-06-14T08:19:52;21.40;44.30
2929;DHT22;1474;51.460;7.150;2023-06-14T08:22:20;21.40;44.00
2929;DHT22;1474;51.460;7.150;2023-06-14T08:24:47;21.40;44.00
2929;DHT22;1474;51.460;7.150;2023-06-14T08:27:13;21.30;44.90
2929;DHT22;1474;51.460;7.150;2023-06-14T08:29:39;21.40;44.30
2929;DHT22;1474;51.460;7.150;2023-06-14T08:32:06;21.70;44.90
2929;DHT22;1474;51.460;7.150;2023-06-14T08:34:32;22.00;44.60
2929;DHT22;1474;51.460;7.150;2023-06-14T08:36:58;22.00;43.40
2929;DHT22;1474;51.460;7.150;2023-06-14T08:39:23;22.00;43.20
2929;DHT22;1474;51.460;7.150;2023-06-14T08:41:50;22.00;42.50
2929;DHT22;1474;51.460;7.150;2023-06-14T08:44:18;22.10;43.20
2929;DHT22;1474;51.460;7.150;2023-06-14T08:46:43;22.40;42.60
2929;DHT22;1474;51.460;7.150;2023-06-14T08:49:16;22.60;42.00
2929;DHT22;1474;51.460;7.150;2023-06-14T08:51:43;22.70;41.80
2929;DHT22;1474;51.460;7.150;2023-06-14T08:54:11;22.90;42.80
2929;DHT22;1474;51.460;7.150;2023-06-14T08:56:38;22.90;42.00
2929;DHT22;1474;51.460;7.150;2023-06-14T08:59:06;23.00;42.50
2929;DHT22;1474;51.460;7.150;2023-06-14T09:01:34;23.10;40.60
2929;DHT22;1474;51.460;7.150;2023-06-14T09:04:02;23.20;39.50
2929;DHT22;1474;51.460;7.150;2023-06-14T09:06:28;23.10;39.40
2929;DHT22;1474;51.460;7.150;2023-06-14T09:08:55;22.90;40.10
2929;DHT22;1474;51.460;7.150;2023-06-14T09:11:24;22.60;41.50
2929;DHT22;1474;51.460;7.150;2023-06-14T09:13:52;22.50;41.00
2929;DHT22;1474;51.460;7.150;2023-06-14T09:16:17;22.60;43.30
2929;DHT22;1474;51.460;7.150;2023-06-14T09:18:45;22.90;40.80
2929;DHT22;1474;51.460;7.150;2023-06-14T09:21:17;22.90;39.60
2929;DHT22;1474;51.460;7.150;2023-06-14T09:23:44;23.00;43.20
2929;DHT22;1474;51.460;7.150;2023-06-14T09:26:17;22.90;40.80
2929;DHT22;1474;51.460;7.150;2023-06-14T09:28:49;22.90;41.00
2929;DHT22;1474;51.460;7.150;2023-06-14T09:31:20;23.00;39.70
2929;DHT22;1474;51.460;7.150;2023-06-14T09:33:49;22.90;40.50
2929;DHT22;1474;51.460;7.150;2023-06-14T09:36:22;23.10;42.60
2929;DHT22;1474;51.460;7.150;2023-06-14T09:38:53;23.20;39.90
2929;DHT22;1474;51.460;7.150;2023-06-14T09:41:33;23.10;39.30
2929;DHT22;1474;51.460;7.150;2023-06-14T09:44:03;23.20;39.50
2929;DHT22;1474;51.460;7.150;2023-06-14T09:46:30;23.20;39.00
2929;DHT22;1474;51.460;7.150;2023-06-14T09:49:00;22.80;40.30
2929;DHT22;1474;51.460;7.150;2023-06-14T09:51:28;22.90;42.80
2929;DHT22;1474;51.460;7.150;2023-06-14T09:54:03;23.30;43.10
2929;DHT22;1474;51.460;7.150;2023-06-14T09:56:34;23.40;38.60
2929;DHT22;1474;51.460;7.150;2023-06-14T09:59:04;23.60;38.50
2929;DHT22;1474;51.460;7.150;2023-06-14T10:01:34;23.50;41.60
2929;DHT22;1474;51.460;7.150;2023-06-14T10:04:03;23.60;38.60
2929;DHT22;1474;51.460;7.150;2023-06-14T10:06:31;23.30;38.80
2929;DHT22;1474;51.460;7.150;2023-06-14T10:09:04;23.30;39.40
2929;DHT22;1474;51.460;7.150;2023-06-14T10:11:33;23.40;39.00
2929;DHT22;1474;51.460;7.150;2023-06-14T10:14:02;23.40;39.50
2929;DHT22;1474;51.460;7.150;2023-06-14T10:16:31;23.60;39.10
2929;DHT22;1474;51.460;7.150;2023-06-14T10:19:07;23.80;39.20
2929;DHT22;1474;51.460;7.150;2023-06-14T10:22:00;23.60;39.70
2929;DHT22;1474;51.460;7.150;2023-06-14T10:24:40;23.70;41.60
2929;DHT22;1474;51.460;7.150;2023-06-14T10:27:08;24.10;39.40
2929;DHT22;1474;51.460;7.150;2023-06-14T10:32:23;24.30;38.20
2929;DHT22;1474;51.460;7.150;2023-06-14T10:35:02;24.00;41.40
2929;DHT22;1474;51.460;7.150;2023-06-14T10:37:31;24.00;39.90
2929;DHT22;1474;51.460;7.150;2023-06-14T10:39:58;24.00;38.70
2929;DHT22;1474;51.460;7.150;2023-06-14T10:42:28;24.00;40.60
2929;DHT22;1474;51.460;7.150;2023-06-14T10:44:57;23.80;40.10
2929;DHT22;1474;51.460;7.150;2023-06-14T10:47:28;23.60;40.10
2929;DHT22;1474;51.460;7.150;2023-06-14T10:50:09;23.60;40.80
2929;DHT22;1474;51.460;7.150;2023-06-14T10:52:39;23.70;41.00
2929;DHT22;1474;51.460;7.150;2023-06-14T10:55:17;23.70;43.60
2929;DHT22;1474;51.460;7.150;2023-06-14T10:57:52;24.00;41.80
2929;DHT22;1474;51.460;7.150;2023-06-14T11:00:28;24.20;42.60
2929;DHT22;1474;51.460;7.150;2023-06-14T11:05:59;24.80;39.20
2929;DHT22;1474;51.460;7.150;2023-06-14T11:08:56;24.80;40.10
2929;DHT22;1474;51.460;7.150;2023-06-14T11:11:42;25.00;38.80
2929;DHT22;1474;51.460;7.150;2023-06-14T11:14:09;24.70;39.70
2929;DHT22;1474;51.460;7.150;2023-06-14T11:16:36;24.40;39.00
2929;DHT22;1474;51.460;7.150;2023-06-14T11:19:02;24.40;40.60
2929;DHT22;1474;51.460;7.150;2023-06-14T11:21:28;24.60;40.90
2929;DHT22;1474;51.460;7.150;2023-06-14T11:23:57;24.70;40.90
2929;DHT22;1474;51.460;7.150;2023-06-14T11:26:30;24.90;41.10
2929;DHT22;1474;51.460;7.150;2023-06-14T11:28:59;25.20;38.90
2929;DHT22;1474;51.460;7.150;2023-06-14T11:31:27;24.90;38.40
2929;DHT22;1474;51.460;7.150;2023-06-14T11:33:54;24.30;42.10
2929;DHT22;1474;51.460;7.150;2023-06-14T11:36:22;24.60;40.60
2929;DHT22;1474;51.460;7.150;2023-06-14T11:38:49;24.60;40.00
2929;DHT22;1474;51.460;7.150;2023-06-14T11:41:14;24.40;41.60
2929;DHT22;1474;51.460;7.150;2023-06-14T11:43:40;24.40;40.60
2929;DHT22;1474;51.460;7.150;2023-06-14T11:46:12;24.50;41.00
2929;DHT22;1474;51.460;7.150;2023-06-14T11:48:43;24.60;39.60
2929;DHT22;1474;51.460;7.150;2023-06-14T11:51:09;24.40;40.10
2929;DHT22;1474;51.460;7.150;2023-06-14T11:53:35;24.70;41.70
2929;DHT22;1474;51.460;7.150;2023-06-14T11:56:01;24.80;41.10
2929;DHT22;1474;51.460;7.150;2023-06-14T11:58:29;24.60;41.20
2929;DHT22;1474;51.460;7.150;2023-06-14T12:00:55;24.70;40.30
2929;DHT22;1474;51.460;7.150;2023-06-14T12:03:25;24.90;41.60
2929;DHT22;1474;51.460;7.150;2023-06-14T12:06:05;25.20;40.50
2929;DHT22;1474;51.460;7.150;2023-06-14T12:08:36;25.30;39.30
2929;DHT22;1474;51.460;7.150;2023-06-14T12:11:14;25.30;41.20
2929;DHT22;1474;51.460;7.150;2023-06-14T12:13:42;25.30;39.20
2929;DHT22;1474;51.460;7.150;2023-06-14T12:16:10;25.30;40.30
2929;DHT22;1474;51.460;7.150;2023-06-14T12:18:38;25.20;39.30
2929;DHT22;1474;51.460;7.150;2023-06-14T12:21:07;25.10;40.00
2929;DHT22;1474;51.460;7.150;2023-06-14T12:26:19;25.10;38.50
2929;DHT22;1474;51.460;7.150;2023-06-14T12:28:46;24.90;40.00
2929;DHT22;1474;51.460;7.150;2023-06-14T12:31:14;24.90;39.30
2929;DHT22;1474;51.460;7.150;2023-06-14T12:33:42;25.00;41.10
2929;DHT22;1474;51.460;7.150;2023-06-14T12:36:09;25.20;38.20
2929;DHT22;1474;51.460;7.150;2023-06-14T12:38:36;25.30;38.70
2929;DHT22;1474;51.460;7.150;2023-06-14T12:41:03;25.30;39.40
2929;DHT22;1474;51.460;7.150;2023-06-14T12:43:29;25.30;39.00
2929;DHT22;1474;51.460;7.150;2023-06-14T12:45:55;25.40;38.90
2929;DHT22;1474;51.460;7.150;2023-06-14T12:48:21;25.30;38.40
2929;DHT22;1474;51.460;7.150;2023-06-14T12:50:47;24.90;38.60
2929;DHT22;1474;51.460;7.150;2023-06-14T12:53:13;24.90;40.40
2929;DHT22;1474;51.460;7.150;2023-06-14T12:55:39;25.30;40.50
2929;DHT22;1474;51.460;7.150;2023-06-14T12:58:06;25.30;38.30
2929;DHT22;1474;51.460;7.150;2023-06-14T13:00:32;25.10;38.50
2929;DHT22;1474;51.460;7.150;2023-06-14T13:02:57;25.20;39.90
2929;DHT22;1474;51.460;7.150;2023-06-14T13:05:24;25.40;39.10
2929;DHT22;1474;51.460;7.150;2023-06-14T13:07:50;25.40;39.20
2929;DHT22;1474;51.460;7.150;2023-06-14T13:10:16;25.40;41.90
2929;DHT22;1474;51.460;7.150;2023-06-14T13:12:43;25.40;38.00
2929;DHT22;1474;51.460;7.150;2023-06-14T13:15:09;25.00;39.50
2929;DHT22;1474;51.460;7.150;2023-06-14T13:17:35;25.00;38.40
2929;DHT22;1474;51.460;7.150;2023-06-14T13:20:06;25.20;41.20
2929;DHT22;1474;51.460;7.150;2023-06-14T13:22:34;25.20;38.30
2929;DHT22;1474;51.460;7.150;2023-06-14T13:25:01;25.40;38.20
2929;DHT22;1474;51.460;7.150;2023-06-14T13:27:27;25.10;38.10
2929;DHT22;1474;51.460;7.150;2023-06-14T13:29:53;25.00;39.70
2929;DHT22;1474;51.460;7.150;2023-06-14T13:32:21;25.10;38.80
2929;DHT22;1474;51.460;7.150;2023-06-14T13:34:47;25.30;40.40
2929;DHT22;1474;51.460;7.150;2023-06-14T13:37:13;25.40;40.00
2929;DHT22;1474;51.460;7.150;2023-06-14T13:39:39;25.70;38.30
2929;DHT22;1474;51.460;7.150;2023-06-14T13:42:05;25.90;38.80
2929;DHT22;1474;51.460;7.150;2023-06-14T13:44:31;25.80;36.80
2929;DHT22;1474;51.460;7.150;2023-06-14T13:46:57;25.60;38.30
2929;DHT22;1474;51.460;7.150;2023-06-14T13:49:23;25.60;37.70
2929;DHT22;1474;51.460;7.150;2023-06-14T13:51:48;25.70;37.80
2929;DHT22;1474;51.460;7.150;2023-06-14T13:54:19;25.60;37.80
2929;DHT22;1474;51.460;7.150;2023-06-14T13:56:46;25.60;38.20
2929;DHT22;1474;51.460;7.150;2023-06-14T13:59:12;25.60;38.80
2929;DHT22;1474;51.460;7.150;2023-06-14T14:01:39;25.60;38.10
2929;DHT22;1474;51.460;7.150;2023-06-14T14:04:05;25.60;39.60
2929;DHT22;1474;51.460;7.150;2023-06-14T14:06:31;25.60;38.30
2929;DHT22;1474;51.460;7.150;2023-06-14T14:08:57;25.70;38.90
2929;DHT22;1474;51.460;7.150;2023-06-14T14:11:23;26.00;38.20
2929;DHT22;1474;51.460;7.150;2023-06-14T14:13:49;26.00;38.30
2929;DHT22;1474;51.460;7.150;2023-06-14T14:16:15;25.90;37.70
2929;DHT22;1474;51.460;7.150;2023-06-14T14:18:41;25.80;37.30
2929;DHT22;1474;51.460;7.150;2023-06-14T14:21:07;25.80;37.90
2929;DHT22;1474;51.460;7.150;2023-06-14T14:23:33;25.50;37.20
2929;DHT22;1474;51.460;7.150;2023-06-14T14:25:58;25.40;38.50
2929;DHT22;1474;51.460;7.150;2023-06-14T14:28:28;25.50;40.40
2929;DHT22;1474;51.460;7.150;2023-06-14T14:30:54;25.70;37.70
2929;DHT22;1474;51.460;7.150;2023-06-14T14:33:20;25.60;38.10
2929;DHT22;1474;51.460;7.150;2023-06-14T14:35:46;25.70;37.60
2929;DHT22;1474;51.460;7.150;2023-06-14T14:38:15;25.80;37.60
2929;DHT22;1474;51.460;7.150;2023-06-14T14:40:42;25.80;36.80
2929;DHT22;1474;51.460;7.150;2023-06-14T14:43:09;25.60;37.10
2929;DHT22;1474;51.460;7.150;2023-06-14T14:45:35;25.40;38.20
2929;DHT22;1474;51.460;7.150;2023-06-14T14:48:01;25.40;38.60
2929;DHT22;1474;51.460;7.150;2023-06-14T14:50:28;25.50;37.40
2929;DHT22;1474;51.460;7.150;2023-06-14T14:52:55;25.60;38.40
2929;DHT22;1474;51.460;7.150;2023-06-14T14:55:21;25.60;37.30
2929;DHT22;1474;51.460;7.150;2023-06-14T14:57:47;25.40;37.90
2929;DHT22;1474;51.460;7.150;2023-06-14T15:00:13;25.50;37.70
2929;DHT22;1474;51.460;7.150;2023-06-14T15:02:39;25.50;38.70
2929;DHT22;1474;51.460;7.150;2023-06-14T15:05:06;25.40;37.80
2929;DHT22;1474;51.460;7.150;2023-06-14T15:07:32;25.40;39.40
2929;DHT22;1474;51.460;7.150;2023-06-14T15:09:59;25.50;38.00
2929;DHT22;1474;51.460;7.150;2023-06-14T15:12:25;25.60;38.20
2929;DHT22;1474;51.460;7.150;2023-06-14T15:14:52;25.70;38.40
2929;DHT22;1474;51.460;7.150;2023-06-14T15:17:21;25.90;37.20
2929;DHT22;1474;51.460;7.150;2023-06-14T15:19:47;25.80;36.90
2929;DHT22;1474;51.460;7.150;2023-06-14T15:22:14;25.60;38.60
2929;DHT22;1474;51.460;7.150;2023-06-14T15:24:41;25.60;37.10
2929;DHT22;1474;51.460;7.150;2023-06-14T15:27:07;25.50;38.20
2929;DHT22;1474;51.460;7.150;2023-06-14T15:29:34;25.50;38.40
2929;DHT22;1474;51.460;7.150;2023-06-14T15:32:03;25.50;37.90
2929;DHT22;1474;51.460;7.150;2023-06-14T15:34:30;25.40;36.60
2929;DHT22;1474;51.460;7.150;2023-06-14T15:36:56;25.40;37.50
2929;DHT22;1474;51.460;7.150;2023-06-14T15:39:22;25.50;38.50
2929;DHT22;1474;51.460;7.150;2023-06-14T15:41:49;25.60;36.40
2929;DHT22;1474;51.460;7.150;2023-06-14T15:44:17;25.50;37.00
2929;DHT22;1474;51.460;7.150;2023-06-14T15:46:43;25.50;37.50
2929;DHT22;1474;51.460;7.150;2023-06-14T15:49:09;25.40;37.50
2929;DHT22;1474;51.460;7.150;2023-06-14T15:51:36;25.30;36.50
2929;DHT22;1474;51.460;7.150;2023-06-14T15:54:02;25.20;37.40
2929;DHT22;1474;51.460;7.150;2023-06-14T15:56:28;25.20;37.40
2929;DHT22;1474;51.460;7.150;2023-06-14T15:58:54;25.30;37.70
2929;DHT22;1474;51.460;7.150;2023-06-14T16:01:21;25.40;36.70
2929;DHT22;1474;51.460;7.150;2023-06-14T16:03:47;25.40;36.80
2929;DHT22;1474;51.460;7.150;2023-06-14T16:06:13;25.40;37.50
2929;DHT22;1474;51.460;7.150;2023-06-14T16:08:39;25.50;37.10
2929;DHT22;1474;51.460;7.150;2023-06-14T16:11:04;25.50;36.80
2929;DHT22;1474;51.460;7.150;2023-06-14T16:13:30;25.20;37.00
2929;DHT22;1474;51.460;7.150;2023-06-14T16:15:56;25.10;37.00
2929;DHT22;1474;51.460;7.150;2023-06-14T16:18:23;24.90;37.40